EWG299 EDDP-EDDS
Flight info
| Callsign | EWG299 |
|---|---|
| Flight time | 0h 46m |
| Altitude | 26000 |
| Route | NEVKO2Q NEVKO Q243 BAMKI/N0380F240 Z94 VAGAB DCT GEBNO GEBNO1W |
| Aircraft | A20N/M-SDE2E3FGHIRWXY/LB1 |
Departure
| Time | 2026-05-07 19:03 |
|---|---|
| Airport | Leipzig/Halle Airport (EDDP) |
Arrival
| Time | 2026-05-07 19:49 |
|---|---|
| Airport | Stuttgart Airport (EDDS) |
| Time | Latitude | Longitude | Altitude | Speed | Heading |
|---|---|---|---|---|---|
| 2026-05-07 18:10 | 51.41893 | 12.22109 | 448 ft | 0 kts | 15° |
| 2026-05-07 18:44 | 51.41893 | 12.22110 | 447 ft | 0 kts | 15° |
| 2026-05-07 18:44 | 51.41888 | 12.22107 | 448 ft | 2 kts | 15° |
| 2026-05-07 18:44 | 51.41874 | 12.22101 | 449 ft | 2 kts | 15° |
| 2026-05-07 18:45 | 51.41860 | 12.22095 | 449 ft | 2 kts | 15° |
| 2026-05-07 18:45 | 51.41846 | 12.22088 | 450 ft | 2 kts | 34° |
| 2026-05-07 18:45 | 51.41842 | 12.22084 | 450 ft | 0 kts | 45° |
| 2026-05-07 18:46 | 51.41842 | 12.22083 | 450 ft | 0 kts | 46° |
| 2026-05-07 18:46 | 51.41841 | 12.22083 | 450 ft | 0 kts | 46° |
| 2026-05-07 18:46 | 51.41874 | 12.22102 | 449 ft | 11 kts | 15° |
| 2026-05-07 18:46 | 51.41893 | 12.22111 | 447 ft | 0 kts | 15° |
| 2026-05-07 18:51 | 51.41884 | 12.22107 | 448 ft | 2 kts | 15° |
| 2026-05-07 18:51 | 51.41871 | 12.22101 | 449 ft | 2 kts | 15° |
| 2026-05-07 18:51 | 51.41857 | 12.22095 | 449 ft | 2 kts | 15° |
| 2026-05-07 18:52 | 51.41843 | 12.22089 | 450 ft | 2 kts | 15° |
| 2026-05-07 18:52 | 51.41828 | 12.22086 | 450 ft | 2 kts | 4° |
| 2026-05-07 18:52 | 51.41812 | 12.22086 | 450 ft | 2 kts | 345° |
| 2026-05-07 18:52 | 51.41798 | 12.22097 | 451 ft | 2 kts | 310° |
| 2026-05-07 18:53 | 51.41792 | 12.22114 | 451 ft | 0 kts | 285° |
| 2026-05-07 18:55 | 51.41804 | 12.22041 | 450 ft | 10 kts | 285° |
| 2026-05-07 18:55 | 51.41827 | 12.21908 | 447 ft | 14 kts | 285° |
| 2026-05-07 18:55 | 51.41855 | 12.21745 | 438 ft | 16 kts | 285° |
| 2026-05-07 18:55 | 51.41888 | 12.21554 | 441 ft | 18 kts | 286° |
| 2026-05-07 18:56 | 51.41923 | 12.21346 | 422 ft | 20 kts | 284° |
| 2026-05-07 18:56 | 51.41962 | 12.21122 | 426 ft | 21 kts | 286° |
| 2026-05-07 18:56 | 51.42026 | 12.20923 | 426 ft | 17 kts | 343° |
| 2026-05-07 18:56 | 51.42127 | 12.20957 | 432 ft | 14 kts | 15° |
| 2026-05-07 18:57 | 51.42227 | 12.21000 | 434 ft | 20 kts | 15° |
| 2026-05-07 18:57 | 51.42379 | 12.21065 | 443 ft | 22 kts | 15° |
| 2026-05-07 18:57 | 51.42471 | 12.21105 | 445 ft | 20 kts | 15° |
| 2026-05-07 18:57 | 51.42657 | 12.21187 | 439 ft | 23 kts | 15° |
| 2026-05-07 18:58 | 51.42814 | 12.21253 | 436 ft | 22 kts | 13° |
| 2026-05-07 18:58 | 51.42856 | 12.21272 | 431 ft | 0 kts | 19° |
| 2026-05-07 19:00 | 51.42866 | 12.21278 | 433 ft | 7 kts | 19° |
| 2026-05-07 19:01 | 51.42945 | 12.21371 | 425 ft | 17 kts | 46° |
| 2026-05-07 19:01 | 51.43032 | 12.21513 | 427 ft | 18 kts | 45° |
| 2026-05-07 19:01 | 51.43117 | 12.21661 | 429 ft | 17 kts | 56° |
| 2026-05-07 19:01 | 51.43130 | 12.21709 | 437 ft | 0 kts | 81° |
| 2026-05-07 19:02 | 51.43138 | 12.21794 | 441 ft | 32 kts | 83° |
| 2026-05-07 19:02 | 51.43176 | 12.22545 | 424 ft | 102 kts | 85° |
| 2026-05-07 19:02 | 51.43250 | 12.24033 | 482 ft | 159 kts | 83° |
| 2026-05-07 19:02 | 51.43323 | 12.25858 | 1065 ft | 172 kts | 86° |
| 2026-05-07 19:03 | 51.43389 | 12.27942 | 1583 ft | 198 kts | 85° |
| 2026-05-07 19:03 | 51.43481 | 12.30183 | 2371 ft | 205 kts | 85° |
| 2026-05-07 19:03 | 51.43584 | 12.32480 | 3238 ft | 207 kts | 84° |
| 2026-05-07 19:03 | 51.43692 | 12.34800 | 4055 ft | 210 kts | 84° |
| 2026-05-07 19:04 | 51.43803 | 12.37162 | 4872 ft | 213 kts | 84° |
| 2026-05-07 19:04 | 51.43917 | 12.39558 | 5635 ft | 216 kts | 85° |
| 2026-05-07 19:04 | 51.44031 | 12.41958 | 6405 ft | 221 kts | 85° |
| 2026-05-07 19:04 | 51.44151 | 12.44496 | 6893 ft | 237 kts | 85° |
| 2026-05-07 19:05 | 51.44280 | 12.47202 | 7109 ft | 247 kts | 85° |
| 2026-05-07 19:05 | 51.44409 | 12.49954 | 7043 ft | 247 kts | 85° |
| 2026-05-07 19:05 | 51.44437 | 12.52700 | 7421 ft | 245 kts | 100° |
| 2026-05-07 19:05 | 51.43604 | 12.54984 | 8386 ft | 239 kts | 139° |
| 2026-05-07 19:06 | 51.42091 | 12.55961 | 9283 ft | 239 kts | 175° |
| 2026-05-07 19:06 | 51.38749 | 12.55710 | 10825 ft | 244 kts | 182° |
| 2026-05-07 19:06 | 51.37036 | 12.55651 | 11567 ft | 247 kts | 180° |
| 2026-05-07 19:07 | 51.35307 | 12.55698 | 12319 ft | 250 kts | 179° |
| 2026-05-07 19:07 | 51.33561 | 12.55813 | 13060 ft | 252 kts | 178° |
| 2026-05-07 19:07 | 51.31812 | 12.55966 | 13780 ft | 255 kts | 177° |
| 2026-05-07 19:07 | 51.30024 | 12.56143 | 14424 ft | 258 kts | 177° |
| 2026-05-07 19:08 | 51.28220 | 12.56333 | 15035 ft | 262 kts | 176° |
| 2026-05-07 19:08 | 51.26390 | 12.56531 | 15645 ft | 265 kts | 176° |
| 2026-05-07 19:08 | 51.24540 | 12.56734 | 16255 ft | 267 kts | 176° |
| 2026-05-07 19:08 | 51.22669 | 12.56941 | 16866 ft | 271 kts | 176° |
| 2026-05-07 19:09 | 51.20795 | 12.57150 | 17476 ft | 274 kts | 176° |
| 2026-05-07 19:09 | 51.18878 | 12.57363 | 18092 ft | 277 kts | 176° |
| 2026-05-07 19:09 | 51.16942 | 12.57578 | 18668 ft | 280 kts | 176° |
| 2026-05-07 19:09 | 51.14979 | 12.57721 | 19184 ft | 283 kts | 185° |
| 2026-05-07 19:10 | 51.13167 | 12.56700 | 19652 ft | 283 kts | 218° |
| 2026-05-07 19:10 | 51.11973 | 12.54271 | 20134 ft | 280 kts | 252° |
| 2026-05-07 19:10 | 51.11612 | 12.51243 | 20671 ft | 279 kts | 266° |
| 2026-05-07 19:10 | 51.11372 | 12.48159 | 21199 ft | 282 kts | 263° |
| 2026-05-07 19:11 | 51.11000 | 12.45075 | 21714 ft | 286 kts | 259° |
| 2026-05-07 19:11 | 51.10510 | 12.42026 | 22210 ft | 289 kts | 257° |
| 2026-05-07 19:11 | 51.09931 | 12.38921 | 22671 ft | 296 kts | 255° |
| 2026-05-07 19:11 | 51.09296 | 12.35783 | 23282 ft | 298 kts | 254° |
| 2026-05-07 19:12 | 51.08634 | 12.32636 | 23866 ft | 300 kts | 254° |
| 2026-05-07 19:12 | 51.07954 | 12.29474 | 24363 ft | 303 kts | 253° |
| 2026-05-07 19:12 | 51.07268 | 12.26322 | 24835 ft | 306 kts | 253° |
| 2026-05-07 19:12 | 51.06567 | 12.23117 | 25317 ft | 308 kts | 253° |
| 2026-05-07 19:13 | 51.05857 | 12.19888 | 25769 ft | 312 kts | 253° |
| 2026-05-07 19:13 | 51.05127 | 12.16572 | 25978 ft | 325 kts | 253° |
| 2026-05-07 19:13 | 51.04359 | 12.13087 | 25997 ft | 343 kts | 253° |
| 2026-05-07 19:13 | 51.03547 | 12.09416 | 26000 ft | 360 kts | 252° |
| 2026-05-07 19:14 | 51.02694 | 12.05574 | 25997 ft | 377 kts | 252° |
| 2026-05-07 19:14 | 51.01800 | 12.01553 | 25999 ft | 393 kts | 252° |
| 2026-05-07 19:14 | 51.00875 | 11.97408 | 26000 ft | 400 kts | 252° |
| 2026-05-07 19:14 | 50.99954 | 11.93291 | 26003 ft | 400 kts | 252° |
| 2026-05-07 19:15 | 50.99020 | 11.89122 | 26002 ft | 399 kts | 252° |
| 2026-05-07 19:15 | 50.98084 | 11.84951 | 26004 ft | 399 kts | 252° |
| 2026-05-07 19:15 | 50.97151 | 11.80804 | 26005 ft | 399 kts | 252° |
| 2026-05-07 19:15 | 50.96217 | 11.76653 | 26004 ft | 399 kts | 252° |
| 2026-05-07 19:16 | 50.95282 | 11.72510 | 26007 ft | 399 kts | 252° |
| 2026-05-07 19:16 | 50.94357 | 11.68418 | 26008 ft | 398 kts | 251° |
| 2026-05-07 19:16 | 50.93409 | 11.64227 | 26006 ft | 398 kts | 251° |
| 2026-05-07 19:16 | 50.92483 | 11.60147 | 26007 ft | 398 kts | 251° |
| 2026-05-07 19:17 | 50.91541 | 11.56004 | 26004 ft | 398 kts | 251° |
| 2026-05-07 19:17 | 50.90595 | 11.51850 | 26005 ft | 398 kts | 251° |
| 2026-05-07 19:17 | 50.89666 | 11.47777 | 26004 ft | 398 kts | 251° |
| 2026-05-07 19:17 | 50.88724 | 11.43656 | 26003 ft | 397 kts | 251° |
| 2026-05-07 19:18 | 50.87780 | 11.39535 | 26003 ft | 397 kts | 251° |
| 2026-05-07 19:18 | 50.86834 | 11.35417 | 26002 ft | 397 kts | 251° |
| 2026-05-07 19:18 | 50.85924 | 11.31337 | 26002 ft | 397 kts | 252° |
| 2026-05-07 19:18 | 50.84725 | 11.27402 | 26005 ft | 397 kts | 238° |
| 2026-05-07 19:19 | 50.83111 | 11.23842 | 25999 ft | 398 kts | 232° |
| 2026-05-07 19:19 | 50.81338 | 11.20462 | 25999 ft | 399 kts | 230° |
| 2026-05-07 19:19 | 50.79527 | 11.17139 | 25997 ft | 399 kts | 230° |
| 2026-05-07 19:19 | 50.77724 | 11.13783 | 25997 ft | 398 kts | 231° |
| 2026-05-07 19:20 | 50.75987 | 11.10451 | 25996 ft | 398 kts | 232° |
| 2026-05-07 19:20 | 50.74251 | 11.07022 | 25996 ft | 397 kts | 232° |
| 2026-05-07 19:20 | 50.72542 | 11.03594 | 25998 ft | 397 kts | 231° |
| 2026-05-07 19:20 | 50.70588 | 11.00496 | 25998 ft | 398 kts | 221° |
| 2026-05-07 19:21 | 50.68416 | 10.97790 | 26000 ft | 398 kts | 217° |
| 2026-05-07 19:21 | 50.66167 | 10.95323 | 25998 ft | 398 kts | 215° |
| 2026-05-07 19:21 | 50.63854 | 10.92916 | 25998 ft | 398 kts | 214° |
| 2026-05-07 19:21 | 50.61535 | 10.90524 | 26001 ft | 398 kts | 214° |
| 2026-05-07 19:22 | 50.59222 | 10.88110 | 26004 ft | 398 kts | 214° |
| 2026-05-07 19:22 | 50.56922 | 10.85671 | 25998 ft | 398 kts | 215° |
| 2026-05-07 19:22 | 50.54662 | 10.83242 | 25998 ft | 398 kts | 215° |
| 2026-05-07 19:22 | 50.52282 | 10.81011 | 25995 ft | 398 kts | 208° |
| 2026-05-07 19:23 | 50.49781 | 10.79104 | 25994 ft | 398 kts | 205° |
| 2026-05-07 19:23 | 50.47231 | 10.77384 | 25993 ft | 399 kts | 203° |
| 2026-05-07 19:23 | 50.44659 | 10.75742 | 25995 ft | 398 kts | 203° |
| 2026-05-07 19:23 | 50.42085 | 10.74120 | 25993 ft | 398 kts | 203° |
| 2026-05-07 19:24 | 50.39509 | 10.72483 | 25995 ft | 398 kts | 203° |
| 2026-05-07 19:24 | 50.36945 | 10.70831 | 25915 ft | 397 kts | 203° |
| 2026-05-07 19:24 | 50.34426 | 10.69188 | 25234 ft | 399 kts | 204° |
| 2026-05-07 19:24 | 50.31843 | 10.67488 | 24498 ft | 402 kts | 204° |
| 2026-05-07 19:25 | 50.29269 | 10.65788 | 24111 ft | 396 kts | 204° |
| 2026-05-07 19:25 | 50.26773 | 10.64138 | 24006 ft | 381 kts | 204° |
| 2026-05-07 19:25 | 50.24375 | 10.62555 | 23992 ft | 365 kts | 204° |
| 2026-05-07 19:25 | 50.22114 | 10.61065 | 23996 ft | 349 kts | 204° |
| 2026-05-07 19:26 | 50.19918 | 10.59620 | 24002 ft | 334 kts | 204° |
| 2026-05-07 19:26 | 50.17823 | 10.58241 | 23994 ft | 320 kts | 204° |
| 2026-05-07 19:26 | 50.15809 | 10.56919 | 23994 ft | 306 kts | 204° |
| 2026-05-07 19:26 | 50.13874 | 10.55648 | 23998 ft | 298 kts | 204° |
| 2026-05-07 19:27 | 50.11963 | 10.54392 | 23995 ft | 298 kts | 204° |
| 2026-05-07 19:27 | 50.10076 | 10.53153 | 23995 ft | 298 kts | 204° |
| 2026-05-07 19:27 | 50.08161 | 10.51896 | 23991 ft | 298 kts | 204° |
| 2026-05-07 19:27 | 50.06247 | 10.50642 | 23992 ft | 298 kts | 204° |
| 2026-05-07 19:28 | 50.04330 | 10.49389 | 23995 ft | 298 kts | 204° |
| 2026-05-07 19:28 | 50.02414 | 10.48137 | 24001 ft | 298 kts | 204° |
| 2026-05-07 19:28 | 50.00522 | 10.46903 | 23999 ft | 298 kts | 204° |
| 2026-05-07 19:28 | 49.98612 | 10.45658 | 23995 ft | 298 kts | 204° |
| 2026-05-07 19:29 | 49.96698 | 10.44411 | 23995 ft | 298 kts | 204° |
| 2026-05-07 19:29 | 49.94781 | 10.43164 | 23992 ft | 298 kts | 204° |
| 2026-05-07 19:29 | 49.92869 | 10.41921 | 23989 ft | 298 kts | 204° |
| 2026-05-07 19:29 | 49.90957 | 10.40679 | 23997 ft | 298 kts | 204° |
| 2026-05-07 19:30 | 49.89047 | 10.39439 | 23999 ft | 298 kts | 204° |
| 2026-05-07 19:30 | 49.87159 | 10.38215 | 23993 ft | 298 kts | 204° |
| 2026-05-07 19:30 | 49.85245 | 10.36975 | 23997 ft | 298 kts | 204° |
| 2026-05-07 19:30 | 49.83332 | 10.35736 | 24001 ft | 298 kts | 204° |
| 2026-05-07 19:31 | 49.81421 | 10.34500 | 23995 ft | 297 kts | 204° |
| 2026-05-07 19:31 | 49.79506 | 10.33262 | 23994 ft | 297 kts | 204° |
| 2026-05-07 19:31 | 49.77596 | 10.32029 | 23998 ft | 297 kts | 204° |
| 2026-05-07 19:31 | 49.75684 | 10.30795 | 23993 ft | 297 kts | 204° |
| 2026-05-07 19:32 | 49.73770 | 10.29561 | 24000 ft | 297 kts | 204° |
| 2026-05-07 19:32 | 49.71882 | 10.28345 | 23994 ft | 297 kts | 205° |
| 2026-05-07 19:32 | 49.69971 | 10.27116 | 23999 ft | 297 kts | 205° |
| 2026-05-07 19:32 | 49.68059 | 10.25886 | 24003 ft | 297 kts | 205° |
| 2026-05-07 19:33 | 49.66144 | 10.24656 | 23998 ft | 297 kts | 205° |
| 2026-05-07 19:33 | 49.64231 | 10.23428 | 23993 ft | 298 kts | 205° |
| 2026-05-07 19:33 | 49.62315 | 10.22199 | 23864 ft | 298 kts | 205° |
| 2026-05-07 19:33 | 49.60371 | 10.20952 | 23198 ft | 307 kts | 205° |
| 2026-05-07 19:34 | 49.58383 | 10.19676 | 22406 ft | 319 kts | 205° |
| 2026-05-07 19:34 | 49.56274 | 10.18323 | 21539 ft | 329 kts | 205° |
| 2026-05-07 19:34 | 49.54145 | 10.16959 | 20697 ft | 341 kts | 205° |
| 2026-05-07 19:34 | 49.51914 | 10.15533 | 19843 ft | 352 kts | 205° |
| 2026-05-07 19:35 | 49.49614 | 10.14066 | 18959 ft | 362 kts | 205° |
| 2026-05-07 19:35 | 49.47251 | 10.12561 | 17986 ft | 373 kts | 205° |
| 2026-05-07 19:35 | 49.44813 | 10.11008 | 16858 ft | 383 kts | 204° |
| 2026-05-07 19:35 | 49.42313 | 10.09418 | 15678 ft | 393 kts | 204° |
| 2026-05-07 19:36 | 49.39754 | 10.07793 | 14484 ft | 403 kts | 204° |
| 2026-05-07 19:36 | 49.37149 | 10.06142 | 13422 ft | 407 kts | 204° |
| 2026-05-07 19:36 | 49.34568 | 10.04511 | 12576 ft | 402 kts | 204° |
| 2026-05-07 19:36 | 49.32031 | 10.02913 | 12131 ft | 386 kts | 204° |
| 2026-05-07 19:37 | 49.29606 | 10.01387 | 12003 ft | 365 kts | 204° |
| 2026-05-07 19:37 | 49.27322 | 9.99952 | 11996 ft | 343 kts | 204° |
| 2026-05-07 19:37 | 49.25176 | 9.98602 | 12000 ft | 323 kts | 204° |
| 2026-05-07 19:37 | 49.23152 | 9.97328 | 11994 ft | 305 kts | 204° |
| 2026-05-07 19:38 | 49.21245 | 9.96128 | 11992 ft | 288 kts | 204° |
| 2026-05-07 19:38 | 49.19437 | 9.94990 | 11993 ft | 273 kts | 204° |
| 2026-05-07 19:38 | 49.17725 | 9.93913 | 11991 ft | 258 kts | 205° |
| 2026-05-07 19:38 | 49.16178 | 9.92691 | 11996 ft | 245 kts | 212° |
| 2026-05-07 19:39 | 49.14723 | 9.91394 | 11995 ft | 241 kts | 212° |
| 2026-05-07 19:39 | 49.13295 | 9.90090 | 11993 ft | 242 kts | 213° |
| 2026-05-07 19:39 | 49.11855 | 9.88765 | 11994 ft | 242 kts | 213° |
| 2026-05-07 19:39 | 49.10880 | 9.87866 | 11993 ft | 242 kts | 213° |
| 2026-05-07 19:40 | 49.08966 | 9.86098 | 11992 ft | 242 kts | 213° |
| 2026-05-07 19:40 | 49.07540 | 9.84782 | 11994 ft | 242 kts | 213° |
| 2026-05-07 19:40 | 49.06102 | 9.83455 | 11994 ft | 242 kts | 213° |
| 2026-05-07 19:40 | 49.04660 | 9.82124 | 11993 ft | 242 kts | 213° |
| 2026-05-07 19:41 | 49.03220 | 9.80797 | 11994 ft | 242 kts | 213° |
| 2026-05-07 19:41 | 49.01776 | 9.79466 | 11995 ft | 242 kts | 213° |
| 2026-05-07 19:41 | 49.00338 | 9.78141 | 11993 ft | 242 kts | 213° |
| 2026-05-07 19:41 | 48.98896 | 9.76814 | 11990 ft | 241 kts | 213° |
| 2026-05-07 19:42 | 48.97470 | 9.75503 | 11988 ft | 241 kts | 213° |
| 2026-05-07 19:42 | 48.96029 | 9.74179 | 11988 ft | 241 kts | 213° |
| 2026-05-07 19:42 | 48.94589 | 9.72857 | 11992 ft | 241 kts | 213° |
| 2026-05-07 19:42 | 48.93150 | 9.71536 | 11988 ft | 241 kts | 213° |
| 2026-05-07 19:43 | 48.91728 | 9.70232 | 11987 ft | 241 kts | 213° |
| 2026-05-07 19:43 | 48.90292 | 9.68916 | 11939 ft | 241 kts | 213° |
| 2026-05-07 19:43 | 48.88833 | 9.67579 | 11451 ft | 248 kts | 213° |
| 2026-05-07 19:43 | 48.87310 | 9.66183 | 10825 ft | 261 kts | 212° |
| 2026-05-07 19:44 | 48.86262 | 9.65224 | 10401 ft | 269 kts | 212° |
| 2026-05-07 19:44 | 48.84069 | 9.63218 | 9436 ft | 284 kts | 212° |
| 2026-05-07 19:44 | 48.82337 | 9.61636 | 8579 ft | 296 kts | 212° |
| 2026-05-07 19:44 | 48.81144 | 9.60548 | 7976 ft | 304 kts | 212° |
| 2026-05-07 19:45 | 48.79291 | 9.58858 | 7018 ft | 316 kts | 212° |
| 2026-05-07 19:45 | 48.76736 | 9.56532 | 5757 ft | 328 kts | 212° |
| 2026-05-07 19:45 | 48.75406 | 9.55355 | 5340 ft | 325 kts | 214° |
| 2026-05-07 19:45 | 48.73890 | 9.53005 | 5042 ft | 308 kts | 242° |
| 2026-05-07 19:46 | 48.73324 | 9.50057 | 4999 ft | 278 kts | 263° |
| 2026-05-07 19:46 | 48.73117 | 9.47281 | 4998 ft | 251 kts | 264° |
| 2026-05-07 19:46 | 48.72892 | 9.44798 | 4870 ft | 234 kts | 261° |
| 2026-05-07 19:46 | 48.72674 | 9.42334 | 4185 ft | 241 kts | 265° |
| 2026-05-07 19:47 | 48.72339 | 9.39784 | 3496 ft | 248 kts | 255° |
| 2026-05-07 19:47 | 48.71854 | 9.37358 | 3116 ft | 226 kts | 254° |
| 2026-05-07 19:47 | 48.71448 | 9.35264 | 3008 ft | 188 kts | 255° |
| 2026-05-07 19:47 | 48.71112 | 9.33472 | 2783 ft | 171 kts | 255° |
| 2026-05-07 19:48 | 48.70792 | 9.31734 | 2234 ft | 172 kts | 255° |
| 2026-05-07 19:48 | 48.70480 | 9.30023 | 1883 ft | 161 kts | 255° |
| 2026-05-07 19:48 | 48.70196 | 9.28502 | 1741 ft | 142 kts | 255° |
| 2026-05-07 19:48 | 48.69926 | 9.27111 | 1558 ft | 134 kts | 255° |
| 2026-05-07 19:49 | 48.69672 | 9.25774 | 1398 ft | 133 kts | 255° |
| 2026-05-07 19:49 | 48.69409 | 9.24419 | 1247 ft | 135 kts | 254° |
| 2026-05-07 19:49 | 48.69159 | 9.23127 | 1226 ft | 103 kts | 255° |
| 2026-05-07 19:49 | 48.69048 | 9.22515 | 1233 ft | 21 kts | 254° |
| 2026-05-07 19:50 | 48.69024 | 9.22393 | 1239 ft | 7 kts | 253° |
| 2026-05-07 19:50 | 48.68979 | 9.22167 | 1239 ft | 58 kts | 253° |
| 2026-05-07 19:50 | 48.68962 | 9.21619 | 1262 ft | 21 kts | 285° |
| 2026-05-07 19:50 | 48.68973 | 9.21551 | 1258 ft | 0 kts | 284° |
| 2026-05-07 19:51 | 48.68974 | 9.21543 | 1256 ft | 0 kts | 284° |
| 2026-05-07 19:52 | 48.68986 | 9.21471 | 1256 ft | 0 kts | 283° |
| 2026-05-07 19:53 | 48.68999 | 9.21377 | 1263 ft | 16 kts | 274° |
| 2026-05-07 19:53 | 48.68977 | 9.21217 | 1260 ft | 15 kts | 254° |
| 2026-05-07 19:53 | 48.68948 | 9.21059 | 1266 ft | 15 kts | 255° |
| 2026-05-07 19:54 | 48.68925 | 9.20945 | 1267 ft | 14 kts | 254° |
| 2026-05-07 19:54 | 48.68890 | 9.20756 | 1271 ft | 20 kts | 253° |
| 2026-05-07 19:54 | 48.68857 | 9.20586 | 1279 ft | 5 kts | 254° |
| 2026-05-07 19:54 | 48.68856 | 9.20582 | 1278 ft | 0 kts | 254° |
| 2026-05-07 19:55 | 48.68855 | 9.20576 | 1278 ft | 6 kts | 254° |
| 2026-05-07 19:55 | 48.68834 | 9.20462 | 1279 ft | 13 kts | 254° |
| 2026-05-07 19:55 | 48.68808 | 9.20330 | 1282 ft | 13 kts | 253° |
| 2026-05-07 19:56 | 48.68784 | 9.20204 | 1287 ft | 13 kts | 253° |
| 2026-05-07 19:56 | 48.68758 | 9.20060 | 1288 ft | 15 kts | 262° |
| 2026-05-07 19:56 | 48.68779 | 9.19975 | 1288 ft | 1 kts | 306° |
| 2026-05-07 19:56 | 48.68824 | 9.19902 | 1290 ft | 2 kts | 314° |
| 2026-05-07 19:57 | 48.68858 | 9.19851 | 1293 ft | 8 kts | 315° |
| 2026-05-07 19:57 | 48.68879 | 9.19792 | 1296 ft | 5 kts | 284° |
| 2026-05-07 19:57 | 48.68875 | 9.19753 | 1297 ft | 7 kts | 259° |
| 2026-05-07 19:58 | 48.68864 | 9.19679 | 1300 ft | 7 kts | 256° |
| 2026-05-07 19:58 | 48.68862 | 9.19618 | 1302 ft | 6 kts | 271° |
| 2026-05-07 19:58 | 48.68861 | 9.19515 | 1307 ft | 9 kts | 258° |
| 2026-05-07 19:58 | 48.68846 | 9.19429 | 1310 ft | 8 kts | 254° |
| 2026-05-07 19:59 | 48.68857 | 9.19375 | 1313 ft | 4 kts | 317° |
| 2026-05-07 19:59 | 48.68871 | 9.19365 | 1314 ft | 4 kts | 342° |
| 2026-05-07 19:59 | 48.68889 | 9.19357 | 1316 ft | 0 kts | 345° |